Pathfinderii — ELHZ5 — position and weather

sailwx.info

Track history (hours):
 
Tides and Currents Weather Stations Pressure Air Temp Water Temp Dewpoint Dewpoint Depression Visibility Wind Speed Wind Dir Waves Ship Positions

Pathfinderii

Last reported at 2018-Mar-02 00:12 UTC. Time now 2018-Jun-23 16:13 UTC.
Position N 36°32' E 015°00'.
Warning: this ship's position is months out of date.

Length 209 m; draft 7.1 m.

Type: Ship. MMSI: 636008252.

Date/timePositionNaut miles runAvg speedWind from/ knotsBaromVisibWave heightAir tempDewpointWater temp
2018-Mar-02 00:12N 36°32' E 015°00'314.1
2018-Mar-01 23:59N 36°34' E 014°57'713.6
2018-Mar-01 23:30N 36°37' E 014°50'713.9
2018-Mar-01 23:00N 36°39' E 014°41'713.8
2018-Mar-01 22:30N 36°39' E 014°33'713.3
2018-Mar-01 22:00N 36°43' E 014°26'713.3
2018-Mar-01 21:30N 36°47' E 014°19'713.1
2018-Mar-01 21:00N 36°50' E 014°12'613.1
2018-Mar-01 20:30N 36°53' E 014°05'713.2
2018-Mar-01 20:00N 36°57' E 013°58'613.1
2018-Mar-01 19:30N 37°00' E 013°51'713.1
2018-Mar-01 19:00N 37°04' E 013°44'  
2018-Feb-26 12:29N 38°57' E 002°54'613.3
2018-Feb-26 12:00N 39°03' E 002°51'713.0
2018-Feb-26 11:30N 39°08' E 002°45'713.3
2018-Feb-26 11:00N 39°13' E 002°39'613.0
2018-Feb-26 10:30N 39°18' E 002°34'713.0
2018-Feb-26 10:00N 39°22' E 002°27'612.7
2018-Feb-26 09:29N 39°27' E 002°21'77 8.1
2018-Feb-25 23:59N 38°51' E 000°53'714.1
2018-Feb-25 23:30N 38°45' E 000°48'3912.3
2018-Feb-25 20:20N 38°30' E 000°02'2312.7
2018-Feb-25 18:31N 38°16' W 000°21'113.3
2018-Feb-25 18:25N 38°14' W 000°21'613.1
2018-Feb-25 17:58N 38°09' W 000°22'613.3
2018-Feb-25 17:29N 38°04' W 000°27'713.5
2018-Feb-25 16:59N 37°58' W 000°32'612.9
2018-Feb-25 16:30N 37°53' W 000°36'713.4
2018-Feb-25 16:00N 37°47' W 000°33'713.2
2018-Feb-25 15:30N 37°41' W 000°29'611.6
2018-Feb-25 15:00N 37°36' W 000°29'714.1
2018-Feb-25 14:30N 37°30' W 000°35'713.7
2018-Feb-25 14:00N 37°30' W 000°44'713.3
2018-Feb-25 13:30N 37°28' W 000°52'713.1
2018-Feb-25 13:00N 37°28' W 001°00'1013.1
2018-Feb-25 12:14N 37°27' W 001°13'313.2
2018-Feb-25 12:00N 37°26' W 001°17'20911.0
2018-Feb-24 17:05N 35°59' W 005°13'114.4
2018-Feb-24 17:00N 35°59' W 005°14'714.2
2018-Feb-24 16:30N 35°58' W 005°23'  
Track history (hours):
 
Tides and Currents Weather Stations Pressure Air Temp Water Temp Dewpoint Dewpoint Depression Visibility Wind Speed Wind Dir Waves Ship Positions

Pathfinderii

Last reported at 2018-Mar-02 00:12 UTC. Time now 2018-Jun-23 16:13 UTC.
Position N 36°32' E 015°00'.
Warning: this ship's position is months out of date.

Length 209 m; draft 7.1 m.

Type: Ship. MMSI: 636008252.

Date/timePositionNaut miles runAvg speedWind from/ knotsBaromVisibWave heightAir tempDewpointWater temp
2018-Mar-02 00:12N 36°32' E 015°00'314.1
2018-Mar-01 23:59N 36°34' E 014°57'713.6
2018-Mar-01 23:30N 36°37' E 014°50'713.9
2018-Mar-01 23:00N 36°39' E 014°41'713.8
2018-Mar-01 22:30N 36°39' E 014°33'713.3
2018-Mar-01 22:00N 36°43' E 014°26'713.3
2018-Mar-01 21:30N 36°47' E 014°19'713.1
2018-Mar-01 21:00N 36°50' E 014°12'613.1
2018-Mar-01 20:30N 36°53' E 014°05'713.2
2018-Mar-01 20:00N 36°57' E 013°58'613.1
2018-Mar-01 19:30N 37°00' E 013°51'713.1
2018-Mar-01 19:00N 37°04' E 013°44'  
2018-Feb-26 12:29N 38°57' E 002°54'613.3
2018-Feb-26 12:00N 39°03' E 002°51'713.0
2018-Feb-26 11:30N 39°08' E 002°45'713.3
2018-Feb-26 11:00N 39°13' E 002°39'613.0
2018-Feb-26 10:30N 39°18' E 002°34'713.0
2018-Feb-26 10:00N 39°22' E 002°27'612.7
2018-Feb-26 09:29N 39°27' E 002°21'77 8.1
2018-Feb-25 23:59N 38°51' E 000°53'714.1
2018-Feb-25 23:30N 38°45' E 000°48'3912.3
2018-Feb-25 20:20N 38°30' E 000°02'2312.7
2018-Feb-25 18:31N 38°16' W 000°21'113.3
2018-Feb-25 18:25N 38°14' W 000°21'613.1
2018-Feb-25 17:58N 38°09' W 000°22'613.3
2018-Feb-25 17:29N 38°04' W 000°27'713.5
2018-Feb-25 16:59N 37°58' W 000°32'612.9
2018-Feb-25 16:30N 37°53' W 000°36'713.4
2018-Feb-25 16:00N 37°47' W 000°33'713.2
2018-Feb-25 15:30N 37°41' W 000°29'611.6
2018-Feb-25 15:00N 37°36' W 000°29'714.1
2018-Feb-25 14:30N 37°30' W 000°35'713.7
2018-Feb-25 14:00N 37°30' W 000°44'713.3
2018-Feb-25 13:30N 37°28' W 000°52'713.1
2018-Feb-25 13:00N 37°28' W 001°00'1013.1
2018-Feb-25 12:14N 37°27' W 001°13'313.2
2018-Feb-25 12:00N 37°26' W 001°17'20911.0
2018-Feb-24 17:05N 35°59' W 005°13'114.4
2018-Feb-24 17:00N 35°59' W 005°14'714.2
2018-Feb-24 16:30N 35°58' W 005°23'  

Dump ship's entire track history